sensor_id;sensor_type;location;lat;lon;timestamp;P1;durP1;ratioP1;P2;durP2;ratioP2
32780;SDS011;19136;47.032;15.502;2022-12-29T00:01:21;27.50;;;11.68;;
32780;SDS011;19136;47.032;15.502;2022-12-29T00:03:47;29.63;;;12.10;;
32780;SDS011;19136;47.032;15.502;2022-12-29T00:06:12;30.40;;;11.90;;
32780;SDS011;19136;47.032;15.502;2022-12-29T00:08:38;22.80;;;10.43;;
32780;SDS011;19136;47.032;15.502;2022-12-29T00:11:10;32.05;;;13.15;;
32780;SDS011;19136;47.032;15.502;2022-12-29T00:13:38;32.47;;;10.95;;
32780;SDS011;19136;47.032;15.502;2022-12-29T00:16:22;25.75;;;11.70;;
32780;SDS011;19136;47.032;15.502;2022-12-29T00:18:48;24.58;;;10.80;;
32780;SDS011;19136;47.032;15.502;2022-12-29T00:21:15;25.33;;;10.80;;
32780;SDS011;19136;47.032;15.502;2022-12-29T00:24:02;24.15;;;10.93;;
32780;SDS011;19136;47.032;15.502;2022-12-29T00:26:48;25.10;;;11.55;;
32780;SDS011;19136;47.032;15.502;2022-12-29T00:29:36;24.45;;;11.18;;
32780;SDS011;19136;47.032;15.502;2022-12-29T00:32:20;24.70;;;12.05;;
32780;SDS011;19136;47.032;15.502;2022-12-29T00:35:04;26.30;;;11.57;;
32780;SDS011;19136;47.032;15.502;2022-12-29T00:37:37;27.77;;;11.23;;
32780;SDS011;19136;47.032;15.502;2022-12-29T00:40:26;25.13;;;10.27;;
32780;SDS011;19136;47.032;15.502;2022-12-29T00:43:10;20.98;;;10.38;;
32780;SDS011;19136;47.032;15.502;2022-12-29T00:45:54;26.15;;;11.70;;
32780;SDS011;19136;47.032;15.502;2022-12-29T00:48:20;23.85;;;11.05;;
32780;SDS011;19136;47.032;15.502;2022-12-29T00:51:05;27.88;;;10.75;;
32780;SDS011;19136;47.032;15.502;2022-12-29T00:53:31;31.38;;;11.93;;
32780;SDS011;19136;47.032;15.502;2022-12-29T00:55:57;20.58;;;10.57;;
32780;SDS011;19136;47.032;15.502;2022-12-29T00:58:22;20.98;;;10.13;;
32780;SDS011;19136;47.032;15.502;2022-12-29T01:00:48;22.88;;;11.52;;
32780;SDS011;19136;47.032;15.502;2022-12-29T01:03:13;20.65;;;9.50;;
32780;SDS011;19136;47.032;15.502;2022-12-29T01:05:39;25.27;;;10.70;;
32780;SDS011;19136;47.032;15.502;2022-12-29T01:08:04;25.17;;;11.15;;
32780;SDS011;19136;47.032;15.502;2022-12-29T01:10:30;23.85;;;10.63;;
32780;SDS011;19136;47.032;15.502;2022-12-29T01:12:55;24.00;;;10.90;;
32780;SDS011;19136;47.032;15.502;2022-12-29T01:15:21;28.45;;;10.85;;
32780;SDS011;19136;47.032;15.502;2022-12-29T01:17:46;25.85;;;11.55;;
32780;SDS011;19136;47.032;15.502;2022-12-29T01:20:12;27.48;;;11.60;;
32780;SDS011;19136;47.032;15.502;2022-12-29T01:22:38;23.65;;;11.20;;
32780;SDS011;19136;47.032;15.502;2022-12-29T01:25:04;36.30;;;11.93;;
32780;SDS011;19136;47.032;15.502;2022-12-29T01:27:30;26.60;;;11.57;;
32780;SDS011;19136;47.032;15.502;2022-12-29T01:29:56;22.63;;;10.07;;
32780;SDS011;19136;47.032;15.502;2022-12-29T01:32:22;27.17;;;10.70;;
32780;SDS011;19136;47.032;15.502;2022-12-29T01:34:47;24.75;;;11.45;;
32780;SDS011;19136;47.032;15.502;2022-12-29T01:37:13;23.30;;;10.52;;
32780;SDS011;19136;47.032;15.502;2022-12-29T01:39:38;30.73;;;11.30;;
32780;SDS011;19136;47.032;15.502;2022-12-29T01:42:04;30.70;;;11.25;;
32780;SDS011;19136;47.032;15.502;2022-12-29T01:47:18;28.38;;;11.20;;
32780;SDS011;19136;47.032;15.502;2022-12-29T01:52:57;20.80;;;9.93;;
32780;SDS011;19136;47.032;15.502;2022-12-29T01:55:24;21.75;;;9.55;;
32780;SDS011;19136;47.032;15.502;2022-12-29T01:57:51;26.73;;;10.43;;
32780;SDS011;19136;47.032;15.502;2022-12-29T02:00:18;30.35;;;11.57;;
32780;SDS011;19136;47.032;15.502;2022-12-29T02:02:49;27.30;;;9.93;;
32780;SDS011;19136;47.032;15.502;2022-12-29T02:08:03;23.98;;;10.45;;
32780;SDS011;19136;47.032;15.502;2022-12-29T02:10:30;21.50;;;10.07;;
32780;SDS011;19136;47.032;15.502;2022-12-29T02:12:56;32.45;;;10.48;;
32780;SDS011;19136;47.032;15.502;2022-12-29T02:15:24;20.60;;;10.00;;
32780;SDS011;19136;47.032;15.502;2022-12-29T02:35:28;20.13;;;9.70;;
32780;SDS011;19136;47.032;15.502;2022-12-29T02:38:09;30.42;;;11.40;;
32780;SDS011;19136;47.032;15.502;2022-12-29T02:40:51;23.23;;;10.93;;
32780;SDS011;19136;47.032;15.502;2022-12-29T02:43:23;22.90;;;10.27;;
32780;SDS011;19136;47.032;15.502;2022-12-29T02:45:53;20.95;;;10.07;;
32780;SDS011;19136;47.032;15.502;2022-12-29T02:48:30;25.85;;;11.20;;
32780;SDS011;19136;47.032;15.502;2022-12-29T02:51:21;33.58;;;13.75;;
32780;SDS011;19136;47.032;15.502;2022-12-29T02:53:50;30.83;;;10.80;;
32780;SDS011;19136;47.032;15.502;2022-12-29T02:56:35;22.52;;;10.30;;
32780;SDS011;19136;47.032;15.502;2022-12-29T02:59:00;22.50;;;9.88;;
32780;SDS011;19136;47.032;15.502;2022-12-29T03:15:21;20.27;;;9.43;;
32780;SDS011;19136;47.032;15.502;2022-12-29T03:18:22;22.02;;;10.45;;
32780;SDS011;19136;47.032;15.502;2022-12-29T03:20:53;32.30;;;13.80;;
32780;SDS011;19136;47.032;15.502;2022-12-29T03:23:21;22.35;;;10.50;;
32780;SDS011;19136;47.032;15.502;2022-12-29T03:25:48;19.83;;;9.60;;
32780;SDS011;19136;47.032;15.502;2022-12-29T03:28:18;20.50;;;9.75;;
32780;SDS011;19136;47.032;15.502;2022-12-29T03:30:47;19.25;;;8.95;;
32780;SDS011;19136;47.032;15.502;2022-12-29T03:33:14;21.48;;;9.52;;
32780;SDS011;19136;47.032;15.502;2022-12-29T03:35:47;18.67;;;9.50;;
32780;SDS011;19136;47.032;15.502;2022-12-29T03:40:48;24.88;;;10.57;;
32780;SDS011;19136;47.032;15.502;2022-12-29T03:43:16;20.25;;;10.27;;
32780;SDS011;19136;47.032;15.502;2022-12-29T03:45:42;21.33;;;10.88;;
32780;SDS011;19136;47.032;15.502;2022-12-29T03:48:07;24.92;;;9.55;;
32780;SDS011;19136;47.032;15.502;2022-12-29T03:50:33;20.52;;;8.65;;
32780;SDS011;19136;47.032;15.502;2022-12-29T03:52:58;18.42;;;9.27;;
32780;SDS011;19136;47.032;15.502;2022-12-29T03:55:24;21.70;;;10.38;;
32780;SDS011;19136;47.032;15.502;2022-12-29T03:57:49;20.20;;;9.10;;
32780;SDS011;19136;47.032;15.502;2022-12-29T04:00:15;25.08;;;9.30;;
32780;SDS011;19136;47.032;15.502;2022-12-29T04:02:41;25.13;;;9.48;;
32780;SDS011;19136;47.032;15.502;2022-12-29T04:05:07;18.25;;;9.15;;
32780;SDS011;19136;47.032;15.502;2022-12-29T04:07:32;21.38;;;9.90;;
32780;SDS011;19136;47.032;15.502;2022-12-29T04:09:58;23.45;;;9.93;;
32780;SDS011;19136;47.032;15.502;2022-12-29T04:12:23;19.90;;;8.60;;
32780;SDS011;19136;47.032;15.502;2022-12-29T04:14:49;21.20;;;9.15;;
32780;SDS011;19136;47.032;15.502;2022-12-29T04:17:14;21.15;;;9.30;;
32780;SDS011;19136;47.032;15.502;2022-12-29T04:19:40;24.90;;;8.57;;
32780;SDS011;19136;47.032;15.502;2022-12-29T04:22:05;22.20;;;9.18;;
32780;SDS011;19136;47.032;15.502;2022-12-29T04:24:31;16.40;;;8.32;;
32780;SDS011;19136;47.032;15.502;2022-12-29T04:26:56;22.38;;;9.20;;
32780;SDS011;19136;47.032;15.502;2022-12-29T04:29:22;20.15;;;8.98;;
32780;SDS011;19136;47.032;15.502;2022-12-29T04:31:48;24.25;;;9.02;;
32780;SDS011;19136;47.032;15.502;2022-12-29T04:34:13;22.85;;;9.45;;
32780;SDS011;19136;47.032;15.502;2022-12-29T04:36:39;19.58;;;9.90;;
32780;SDS011;19136;47.032;15.502;2022-12-29T04:39:05;21.95;;;9.23;;
32780;SDS011;19136;47.032;15.502;2022-12-29T04:41:31;17.40;;;8.80;;
32780;SDS011;19136;47.032;15.502;2022-12-29T04:43:56;20.77;;;8.60;;
32780;SDS011;19136;47.032;15.502;2022-12-29T04:46:22;21.58;;;9.68;;
32780;SDS011;19136;47.032;15.502;2022-12-29T04:48:47;22.45;;;9.10;;
32780;SDS011;19136;47.032;15.502;2022-12-29T04:51:13;24.02;;;9.55;;
32780;SDS011;19136;47.032;15.502;2022-12-29T04:53:38;18.83;;;9.55;;
32780;SDS011;19136;47.032;15.502;2022-12-29T04:56:04;20.95;;;9.18;;
32780;SDS011;19136;47.032;15.502;2022-12-29T04:58:29;20.25;;;8.57;;
32780;SDS011;19136;47.032;15.502;2022-12-29T05:00:55;20.38;;;9.75;;
32780;SDS011;19136;47.032;15.502;2022-12-29T05:03:20;20.35;;;8.40;;
32780;SDS011;19136;47.032;15.502;2022-12-29T05:05:46;19.95;;;8.73;;
32780;SDS011;19136;47.032;15.502;2022-12-29T05:08:11;20.70;;;9.30;;
32780;SDS011;19136;47.032;15.502;2022-12-29T05:10:37;17.13;;;7.93;;
32780;SDS011;19136;47.032;15.502;2022-12-29T05:13:03;18.85;;;9.10;;
32780;SDS011;19136;47.032;15.502;2022-12-29T05:15:28;23.50;;;9.88;;
32780;SDS011;19136;47.032;15.502;2022-12-29T05:17:53;20.90;;;9.25;;
32780;SDS011;19136;47.032;15.502;2022-12-29T05:20:19;17.67;;;8.93;;
32780;SDS011;19136;47.032;15.502;2022-12-29T05:22:45;28.00;;;9.85;;
32780;SDS011;19136;47.032;15.502;2022-12-29T05:25:10;22.35;;;9.23;;
32780;SDS011;19136;47.032;15.502;2022-12-29T05:27:36;21.73;;;9.10;;
32780;SDS011;19136;47.032;15.502;2022-12-29T05:30:01;16.38;;;8.68;;
32780;SDS011;19136;47.032;15.502;2022-12-29T05:32:28;16.15;;;7.97;;
32780;SDS011;19136;47.032;15.502;2022-12-29T05:34:53;20.92;;;8.27;;
32780;SDS011;19136;47.032;15.502;2022-12-29T05:37:19;25.38;;;9.77;;
32780;SDS011;19136;47.032;15.502;2022-12-29T05:39:44;23.65;;;9.98;;
32780;SDS011;19136;47.032;15.502;2022-12-29T05:42:10;19.80;;;9.05;;
32780;SDS011;19136;47.032;15.502;2022-12-29T05:44:35;17.75;;;8.43;;
32780;SDS011;19136;47.032;15.502;2022-12-29T05:47:01;21.42;;;9.23;;
32780;SDS011;19136;47.032;15.502;2022-12-29T05:49:26;23.55;;;10.30;;
32780;SDS011;19136;47.032;15.502;2022-12-29T05:51:52;30.58;;;10.85;;
32780;SDS011;19136;47.032;15.502;2022-12-29T05:54:20;27.00;;;13.25;;
32780;SDS011;19136;47.032;15.502;2022-12-29T05:56:46;24.77;;;10.75;;
32780;SDS011;19136;47.032;15.502;2022-12-29T05:59:11;21.38;;;10.27;;
32780;SDS011;19136;47.032;15.502;2022-12-29T06:01:37;23.13;;;9.50;;
32780;SDS011;19136;47.032;15.502;2022-12-29T06:04:02;23.02;;;9.07;;
32780;SDS011;19136;47.032;15.502;2022-12-29T06:06:28;21.63;;;9.00;;
32780;SDS011;19136;47.032;15.502;2022-12-29T06:08:53;22.13;;;10.52;;
32780;SDS011;19136;47.032;15.502;2022-12-29T06:11:19;19.17;;;9.48;;
32780;SDS011;19136;47.032;15.502;2022-12-29T06:13:44;18.10;;;8.95;;
32780;SDS011;19136;47.032;15.502;2022-12-29T06:16:10;21.48;;;9.38;;
32780;SDS011;19136;47.032;15.502;2022-12-29T06:18:35;25.05;;;9.88;;
32780;SDS011;19136;47.032;15.502;2022-12-29T06:21:01;24.40;;;10.68;;
32780;SDS011;19136;47.032;15.502;2022-12-29T06:23:28;27.67;;;10.23;;
32780;SDS011;19136;47.032;15.502;2022-12-29T06:25:53;22.17;;;10.38;;
32780;SDS011;19136;47.032;15.502;2022-12-29T06:28:19;23.00;;;9.88;;
32780;SDS011;19136;47.032;15.502;2022-12-29T06:30:45;25.05;;;10.10;;
32780;SDS011;19136;47.032;15.502;2022-12-29T06:33:11;26.38;;;12.05;;
32780;SDS011;19136;47.032;15.502;2022-12-29T06:35:37;20.98;;;9.38;;
32780;SDS011;19136;47.032;15.502;2022-12-29T06:38:03;20.70;;;9.98;;
32780;SDS011;19136;47.032;15.502;2022-12-29T06:40:28;22.75;;;11.02;;
32780;SDS011;19136;47.032;15.502;2022-12-29T06:42:54;24.60;;;10.02;;
32780;SDS011;19136;47.032;15.502;2022-12-29T06:45:19;23.35;;;10.40;;
32780;SDS011;19136;47.032;15.502;2022-12-29T06:47:44;25.67;;;10.10;;
32780;SDS011;19136;47.032;15.502;2022-12-29T06:50:10;22.42;;;10.57;;
32780;SDS011;19136;47.032;15.502;2022-12-29T06:52:35;28.13;;;10.38;;
32780;SDS011;19136;47.032;15.502;2022-12-29T06:55:01;23.05;;;11.60;;
32780;SDS011;19136;47.032;15.502;2022-12-29T06:57:27;26.85;;;11.95;;
32780;SDS011;19136;47.032;15.502;2022-12-29T06:59:52;22.60;;;10.27;;
32780;SDS011;19136;47.032;15.502;2022-12-29T07:02:22;25.88;;;10.75;;
32780;SDS011;19136;47.032;15.502;2022-12-29T07:04:50;28.10;;;12.07;;
32780;SDS011;19136;47.032;15.502;2022-12-29T07:07:17;30.95;;;13.32;;
32780;SDS011;19136;47.032;15.502;2022-12-29T07:09:43;30.20;;;10.98;;
32780;SDS011;19136;47.032;15.502;2022-12-29T07:12:08;22.48;;;11.27;;
32780;SDS011;19136;47.032;15.502;2022-12-29T07:14:34;24.00;;;10.48;;
32780;SDS011;19136;47.032;15.502;2022-12-29T07:17:00;23.60;;;11.13;;
32780;SDS011;19136;47.032;15.502;2022-12-29T07:19:26;25.40;;;11.80;;
32780;SDS011;19136;47.032;15.502;2022-12-29T07:21:51;27.42;;;11.85;;
32780;SDS011;19136;47.032;15.502;2022-12-29T07:24:19;27.58;;;11.35;;
32780;SDS011;19136;47.032;15.502;2022-12-29T07:26:45;28.77;;;12.18;;
32780;SDS011;19136;47.032;15.502;2022-12-29T07:29:10;31.92;;;13.07;;
32780;SDS011;19136;47.032;15.502;2022-12-29T07:31:36;26.65;;;12.23;;
32780;SDS011;19136;47.032;15.502;2022-12-29T07:34:01;30.38;;;13.13;;
32780;SDS011;19136;47.032;15.502;2022-12-29T07:36:27;27.35;;;12.98;;
32780;SDS011;19136;47.032;15.502;2022-12-29T07:38:52;34.10;;;13.30;;
32780;SDS011;19136;47.032;15.502;2022-12-29T07:41:17;33.63;;;13.00;;
32780;SDS011;19136;47.032;15.502;2022-12-29T07:43:46;34.42;;;13.43;;
32780;SDS011;19136;47.032;15.502;2022-12-29T07:46:14;39.50;;;13.43;;
32780;SDS011;19136;47.032;15.502;2022-12-29T07:48:40;27.45;;;12.43;;
32780;SDS011;19136;47.032;15.502;2022-12-29T07:51:05;31.30;;;11.57;;
32780;SDS011;19136;47.032;15.502;2022-12-29T07:53:31;29.58;;;13.18;;
32780;SDS011;19136;47.032;15.502;2022-12-29T07:55:57;25.63;;;12.68;;
32780;SDS011;19136;47.032;15.502;2022-12-29T07:58:23;25.88;;;11.90;;
32780;SDS011;19136;47.032;15.502;2022-12-29T08:00:52;32.00;;;12.23;;
32780;SDS011;19136;47.032;15.502;2022-12-29T08:03:21;24.35;;;10.90;;
32780;SDS011;19136;47.032;15.502;2022-12-29T08:05:47;27.90;;;10.48;;
32780;SDS011;19136;47.032;15.502;2022-12-29T08:08:13;26.13;;;11.27;;
32780;SDS011;19136;47.032;15.502;2022-12-29T08:10:38;24.02;;;12.00;;
32780;SDS011;19136;47.032;15.502;2022-12-29T08:13:04;18.90;;;9.80;;
32780;SDS011;19136;47.032;15.502;2022-12-29T08:15:29;19.55;;;8.75;;
32780;SDS011;19136;47.032;15.502;2022-12-29T08:17:55;18.50;;;9.07;;
32780;SDS011;19136;47.032;15.502;2022-12-29T08:20:20;16.23;;;7.97;;
32780;SDS011;19136;47.032;15.502;2022-12-29T08:22:45;19.45;;;8.63;;
32780;SDS011;19136;47.032;15.502;2022-12-29T08:25:11;18.77;;;9.25;;
32780;SDS011;19136;47.032;15.502;2022-12-29T08:27:36;17.80;;;9.60;;
32780;SDS011;19136;47.032;15.502;2022-12-29T08:30:02;19.88;;;9.70;;
32780;SDS011;19136;47.032;15.502;2022-12-29T08:32:28;19.35;;;8.95;;
32780;SDS011;19136;47.032;15.502;2022-12-29T08:34:54;17.73;;;9.13;;
32780;SDS011;19136;47.032;15.502;2022-12-29T08:37:19;23.80;;;12.45;;
32780;SDS011;19136;47.032;15.502;2022-12-29T08:39:45;25.10;;;12.55;;
32780;SDS011;19136;47.032;15.502;2022-12-29T08:42:11;26.63;;;11.98;;
32780;SDS011;19136;47.032;15.502;2022-12-29T08:44:36;22.55;;;10.70;;
32780;SDS011;19136;47.032;15.502;2022-12-29T08:47:02;17.13;;;8.82;;
32780;SDS011;19136;47.032;15.502;2022-12-29T08:49:27;18.27;;;9.30;;
32780;SDS011;19136;47.032;15.502;2022-12-29T08:51:53;17.70;;;9.43;;
32780;SDS011;19136;47.032;15.502;2022-12-29T08:54:20;23.45;;;9.55;;
32780;SDS011;19136;47.032;15.502;2022-12-29T08:56:46;19.85;;;9.40;;
32780;SDS011;19136;47.032;15.502;2022-12-29T08:59:12;22.00;;;11.20;;
32780;SDS011;19136;47.032;15.502;2022-12-29T09:01:46;24.27;;;12.48;;
32780;SDS011;19136;47.032;15.502;2022-12-29T09:04:15;27.80;;;12.88;;
32780;SDS011;19136;47.032;15.502;2022-12-29T09:06:41;21.98;;;12.55;;
32780;SDS011;19136;47.032;15.502;2022-12-29T09:09:07;22.73;;;11.05;;
32780;SDS011;19136;47.032;15.502;2022-12-29T09:11:33;22.95;;;10.90;;
32780;SDS011;19136;47.032;15.502;2022-12-29T09:13:58;23.45;;;11.27;;
32780;SDS011;19136;47.032;15.502;2022-12-29T09:16:24;23.27;;;10.18;;
32780;SDS011;19136;47.032;15.502;2022-12-29T09:18:49;19.65;;;9.85;;
32780;SDS011;19136;47.032;15.502;2022-12-29T09:21:16;18.27;;;9.48;;
32780;SDS011;19136;47.032;15.502;2022-12-29T09:23:41;20.08;;;11.13;;
32780;SDS011;19136;47.032;15.502;2022-12-29T09:26:07;14.88;;;8.88;;
32780;SDS011;19136;47.032;15.502;2022-12-29T09:28:34;21.27;;;10.65;;
32780;SDS011;19136;47.032;15.502;2022-12-29T09:30:59;19.42;;;11.63;;
32780;SDS011;19136;47.032;15.502;2022-12-29T09:33:25;23.23;;;12.38;;
32780;SDS011;19136;47.032;15.502;2022-12-29T09:35:55;24.10;;;12.45;;
32780;SDS011;19136;47.032;15.502;2022-12-29T09:38:22;27.70;;;15.32;;
32780;SDS011;19136;47.032;15.502;2022-12-29T09:40:53;30.88;;;16.40;;
32780;SDS011;19136;47.032;15.502;2022-12-29T09:51:50;25.90;;;14.23;;
32780;SDS011;19136;47.032;15.502;2022-12-29T09:57:56;25.27;;;14.00;;
32780;SDS011;19136;47.032;15.502;2022-12-29T10:00:22;27.23;;;14.20;;
32780;SDS011;19136;47.032;15.502;2022-12-29T10:03:12;23.40;;;13.18;;
32780;SDS011;19136;47.032;15.502;2022-12-29T10:08:37;25.70;;;13.50;;
32780;SDS011;19136;47.032;15.502;2022-12-29T10:16:39;23.52;;;14.02;;
32780;SDS011;19136;47.032;15.502;2022-12-29T10:24:31;27.80;;;14.23;;
32780;SDS011;19136;47.032;15.502;2022-12-29T10:26:57;25.05;;;12.40;;
32780;SDS011;19136;47.032;15.502;2022-12-29T10:29:25;26.08;;;13.55;;
32780;SDS011;19136;47.032;15.502;2022-12-29T10:34:36;25.80;;;13.20;;
32780;SDS011;19136;47.032;15.502;2022-12-29T10:40:00;24.88;;;11.10;;
32780;SDS011;19136;47.032;15.502;2022-12-29T10:42:29;23.27;;;13.05;;
32780;SDS011;19136;47.032;15.502;2022-12-29T10:45:02;25.23;;;13.38;;
32780;SDS011;19136;47.032;15.502;2022-12-29T10:47:29;23.75;;;12.43;;
32780;SDS011;19136;47.032;15.502;2022-12-29T10:49:59;24.05;;;12.30;;
32780;SDS011;19136;47.032;15.502;2022-12-29T10:52:25;21.65;;;12.15;;
32780;SDS011;19136;47.032;15.502;2022-12-29T10:57:36;23.83;;;11.15;;
32780;SDS011;19136;47.032;15.502;2022-12-29T11:00:12;24.40;;;12.57;;
32780;SDS011;19136;47.032;15.502;2022-12-29T11:08:15;20.05;;;11.10;;
32780;SDS011;19136;47.032;15.502;2022-12-29T11:10:43;22.90;;;11.45;;
32780;SDS011;19136;47.032;15.502;2022-12-29T11:13:11;23.50;;;11.82;;
32780;SDS011;19136;47.032;15.502;2022-12-29T11:15:45;22.33;;;10.73;;
32780;SDS011;19136;47.032;15.502;2022-12-29T11:21:04;18.88;;;10.40;;
32780;SDS011;19136;47.032;15.502;2022-12-29T11:23:33;23.40;;;11.10;;
32780;SDS011;19136;47.032;15.502;2022-12-29T11:31:43;21.15;;;10.73;;
32780;SDS011;19136;47.032;15.502;2022-12-29T11:34:17;21.23;;;10.38;;
32780;SDS011;19136;47.032;15.502;2022-12-29T11:36:44;16.90;;;9.10;;
32780;SDS011;19136;47.032;15.502;2022-12-29T11:39:23;22.45;;;10.40;;
32780;SDS011;19136;47.032;15.502;2022-12-29T11:41:58;30.02;;;10.18;;
32780;SDS011;19136;47.032;15.502;2022-12-29T11:44:24;18.67;;;9.05;;
32780;SDS011;19136;47.032;15.502;2022-12-29T11:46:51;20.13;;;9.40;;
32780;SDS011;19136;47.032;15.502;2022-12-29T11:49:21;40.45;;;9.43;;
32780;SDS011;19136;47.032;15.502;2022-12-29T11:51:49;22.42;;;9.63;;
32780;SDS011;19136;47.032;15.502;2022-12-29T11:54:18;20.88;;;9.25;;
32780;SDS011;19136;47.032;15.502;2022-12-29T11:56:46;18.67;;;9.25;;
32780;SDS011;19136;47.032;15.502;2022-12-29T12:01:59;24.05;;;9.38;;
32780;SDS011;19136;47.032;15.502;2022-12-29T12:04:48;26.67;;;9.80;;
32780;SDS011;19136;47.032;15.502;2022-12-29T12:07:15;19.40;;;10.15;;
32780;SDS011;19136;47.032;15.502;2022-12-29T12:09:50;18.40;;;9.57;;
32780;SDS011;19136;47.032;15.502;2022-12-29T12:15:08;21.30;;;8.60;;
32780;SDS011;19136;47.032;15.502;2022-12-29T12:17:47;19.02;;;9.30;;
32780;SDS011;19136;47.032;15.502;2022-12-29T12:20:19;18.88;;;7.78;;
32780;SDS011;19136;47.032;15.502;2022-12-29T12:23:07;23.88;;;8.20;;
32780;SDS011;19136;47.032;15.502;2022-12-29T12:25:38;20.95;;;7.47;;
32780;SDS011;19136;47.032;15.502;2022-12-29T12:28:24;12.50;;;5.93;;
32780;SDS011;19136;47.032;15.502;2022-12-29T12:31:15;11.00;;;5.10;;
32780;SDS011;19136;47.032;15.502;2022-12-29T12:33:44;11.20;;;4.78;;
32780;SDS011;19136;47.032;15.502;2022-12-29T13:04:59;8.40;;;3.63;;
32780;SDS011;19136;47.032;15.502;2022-12-29T13:15:25;8.90;;;4.68;;
32780;SDS011;19136;47.032;15.502;2022-12-29T13:18:06;8.20;;;4.50;;
32780;SDS011;19136;47.032;15.502;2022-12-29T13:23:42;10.10;;;4.43;;
32780;SDS011;19136;47.032;15.502;2022-12-29T13:26:30;8.98;;;5.35;;
32780;SDS011;19136;47.032;15.502;2022-12-29T13:37:00;9.60;;;4.93;;
32780;SDS011;19136;47.032;15.502;2022-12-29T13:39:33;7.65;;;4.85;;
32780;SDS011;19136;47.032;15.502;2022-12-29T13:42:00;10.73;;;5.45;;
32780;SDS011;19136;47.032;15.502;2022-12-29T13:44:28;10.30;;;4.80;;
32780;SDS011;19136;47.032;15.502;2022-12-29T13:46:57;13.20;;;4.93;;
32780;SDS011;19136;47.032;15.502;2022-12-29T13:49:26;9.63;;;4.57;;
32780;SDS011;19136;47.032;15.502;2022-12-29T13:51:56;9.68;;;4.88;;
32780;SDS011;19136;47.032;15.502;2022-12-29T13:54:29;9.63;;;4.82;;
32780;SDS011;19136;47.032;15.502;2022-12-29T14:00:14;12.07;;;5.03;;
32780;SDS011;19136;47.032;15.502;2022-12-29T14:08:55;9.55;;;4.75;;
32780;SDS011;19136;47.032;15.502;2022-12-29T14:11:24;9.88;;;4.43;;
32780;SDS011;19136;47.032;15.502;2022-12-29T14:14:17;7.88;;;4.68;;
32780;SDS011;19136;47.032;15.502;2022-12-29T14:16:45;16.80;;;4.90;;
32780;SDS011;19136;47.032;15.502;2022-12-29T14:19:13;10.40;;;4.50;;
32780;SDS011;19136;47.032;15.502;2022-12-29T14:21:49;9.98;;;4.65;;
32780;SDS011;19136;47.032;15.502;2022-12-29T14:27:01;19.42;;;5.55;;
32780;SDS011;19136;47.032;15.502;2022-12-29T14:32:35;17.88;;;6.07;;
32780;SDS011;19136;47.032;15.502;2022-12-29T14:34:50;17.95;;;5.88;;
32780;SDS011;19136;47.032;15.502;2022-12-29T14:37:23;12.13;;;5.80;;
32780;SDS011;19136;47.032;15.502;2022-12-29T14:42:47;11.52;;;5.72;;
32780;SDS011;19136;47.032;15.502;2022-12-29T14:47:44;14.93;;;5.97;;
32780;SDS011;19136;47.032;15.502;2022-12-29T14:52:57;21.25;;;8.80;;
32780;SDS011;19136;47.032;15.502;2022-12-29T14:58:02;14.15;;;5.68;;
32780;SDS011;19136;47.032;15.502;2022-12-29T15:00:33;19.80;;;5.15;;
32780;SDS011;19136;47.032;15.502;2022-12-29T15:03:36;12.93;;;6.03;;
32780;SDS011;19136;47.032;15.502;2022-12-29T15:06:18;22.27;;;6.35;;
32780;SDS011;19136;47.032;15.502;2022-12-29T15:08:51;20.02;;;5.72;;
32780;SDS011;19136;47.032;15.502;2022-12-29T15:11:22;20.42;;;6.07;;
32780;SDS011;19136;47.032;15.502;2022-12-29T15:13:57;18.70;;;6.55;;
32780;SDS011;19136;47.032;15.502;2022-12-29T15:18:52;19.52;;;6.47;;
32780;SDS011;19136;47.032;15.502;2022-12-29T15:21:20;33.17;;;7.13;;
32780;SDS011;19136;47.032;15.502;2022-12-29T15:23:57;13.88;;;6.20;;
32780;SDS011;19136;47.032;15.502;2022-12-29T15:26:22;17.40;;;6.85;;
32780;SDS011;19136;47.032;15.502;2022-12-29T15:28:49;18.95;;;7.75;;
32780;SDS011;19136;47.032;15.502;2022-12-29T15:31:17;21.60;;;7.80;;
32780;SDS011;19136;47.032;15.502;2022-12-29T15:34:10;24.20;;;6.85;;
32780;SDS011;19136;47.032;15.502;2022-12-29T15:36:38;17.58;;;7.05;;
32780;SDS011;19136;47.032;15.502;2022-12-29T15:39:47;14.50;;;6.93;;
32780;SDS011;19136;47.032;15.502;2022-12-29T15:41:56;17.75;;;7.30;;
32780;SDS011;19136;47.032;15.502;2022-12-29T15:44:28;23.60;;;9.95;;
32780;SDS011;19136;47.032;15.502;2022-12-29T15:46:57;22.40;;;8.57;;
32780;SDS011;19136;47.032;15.502;2022-12-29T15:49:28;17.80;;;8.15;;
32780;SDS011;19136;47.032;15.502;2022-12-29T15:51:53;22.48;;;8.48;;
32780;SDS011;19136;47.032;15.502;2022-12-29T15:54:20;18.88;;;8.77;;
32780;SDS011;19136;47.032;15.502;2022-12-29T15:56:47;22.02;;;8.60;;
32780;SDS011;19136;47.032;15.502;2022-12-29T15:59:28;17.38;;;9.10;;
32780;SDS011;19136;47.032;15.502;2022-12-29T16:01:55;21.63;;;9.73;;
32780;SDS011;19136;47.032;15.502;2022-12-29T16:04:21;20.95;;;9.23;;
32780;SDS011;19136;47.032;15.502;2022-12-29T16:06:56;23.90;;;8.48;;
32780;SDS011;19136;47.032;15.502;2022-12-29T16:09:30;17.17;;;8.27;;
32780;SDS011;19136;47.032;15.502;2022-12-29T16:11:58;24.23;;;9.25;;
32780;SDS011;19136;47.032;15.502;2022-12-29T16:16:57;19.88;;;10.25;;
32780;SDS011;19136;47.032;15.502;2022-12-29T16:19:28;22.15;;;10.88;;
32780;SDS011;19136;47.032;15.502;2022-12-29T16:22:01;24.23;;;11.02;;
32780;SDS011;19136;47.032;15.502;2022-12-29T16:24:30;26.30;;;11.95;;
32780;SDS011;19136;47.032;15.502;2022-12-29T16:26:59;27.52;;;12.80;;
32780;SDS011;19136;47.032;15.502;2022-12-29T16:29:31;27.08;;;11.68;;
32780;SDS011;19136;47.032;15.502;2022-12-29T16:31:58;29.65;;;12.52;;
32780;SDS011;19136;47.032;15.502;2022-12-29T16:37:24;31.08;;;13.63;;
32780;SDS011;19136;47.032;15.502;2022-12-29T16:40:39;31.55;;;13.57;;
32780;SDS011;19136;47.032;15.502;2022-12-29T16:50:32;37.17;;;12.25;;
32780;SDS011;19136;47.032;15.502;2022-12-29T16:52:59;27.50;;;11.75;;
32780;SDS011;19136;47.032;15.502;2022-12-29T16:55:25;28.02;;;12.30;;
32780;SDS011;19136;47.032;15.502;2022-12-29T16:57:51;30.25;;;12.85;;
32780;SDS011;19136;47.032;15.502;2022-12-29T17:00:22;23.10;;;12.25;;
32780;SDS011;19136;47.032;15.502;2022-12-29T17:02:51;27.25;;;12.05;;
32780;SDS011;19136;47.032;15.502;2022-12-29T17:05:18;23.55;;;10.65;;
32780;SDS011;19136;47.032;15.502;2022-12-29T17:07:44;24.58;;;11.35;;
32780;SDS011;19136;47.032;15.502;2022-12-29T17:10:10;26.73;;;11.50;;
32780;SDS011;19136;47.032;15.502;2022-12-29T17:12:37;29.98;;;11.43;;
32780;SDS011;19136;47.032;15.502;2022-12-29T17:17:44;24.10;;;11.07;;
32780;SDS011;19136;47.032;15.502;2022-12-29T17:20:15;32.47;;;11.85;;
32780;SDS011;19136;47.032;15.502;2022-12-29T17:22:45;28.08;;;12.95;;
32780;SDS011;19136;47.032;15.502;2022-12-29T17:25:11;27.17;;;13.40;;
32780;SDS011;19136;47.032;15.502;2022-12-29T17:27:41;27.75;;;12.60;;
32780;SDS011;19136;47.032;15.502;2022-12-29T17:30:16;33.50;;;13.88;;
32780;SDS011;19136;47.032;15.502;2022-12-29T17:32:43;33.13;;;14.07;;
32780;SDS011;19136;47.032;15.502;2022-12-29T17:35:16;30.63;;;12.93;;